sensor_id;sensor_type;location;lat;lon;timestamp;P1;durP1;ratioP1;P2;durP2;ratioP2
40164;SDS011;25882;51.120;17.248;2022-12-07T00:01:43;24.25;;;12.27;;
40164;SDS011;25882;51.120;17.248;2022-12-07T00:04:12;26.70;;;12.85;;
40164;SDS011;25882;51.120;17.248;2022-12-07T00:06:40;25.35;;;11.43;;
40164;SDS011;25882;51.120;17.248;2022-12-07T00:09:09;20.90;;;11.82;;
40164;SDS011;25882;51.120;17.248;2022-12-07T00:11:39;20.45;;;10.52;;
40164;SDS011;25882;51.120;17.248;2022-12-07T00:14:06;20.98;;;10.50;;
40164;SDS011;25882;51.120;17.248;2022-12-07T00:16:35;18.48;;;10.10;;
40164;SDS011;25882;51.120;17.248;2022-12-07T00:19:01;19.15;;;10.25;;
40164;SDS011;25882;51.120;17.248;2022-12-07T00:21:29;17.55;;;9.98;;
40164;SDS011;25882;51.120;17.248;2022-12-07T00:23:57;16.60;;;9.13;;
40164;SDS011;25882;51.120;17.248;2022-12-07T00:26:24;16.20;;;9.65;;
40164;SDS011;25882;51.120;17.248;2022-12-07T00:28:54;16.40;;;8.77;;
40164;SDS011;25882;51.120;17.248;2022-12-07T00:31:21;15.55;;;9.00;;
40164;SDS011;25882;51.120;17.248;2022-12-07T00:33:49;16.52;;;9.13;;
40164;SDS011;25882;51.120;17.248;2022-12-07T00:36:16;15.65;;;8.75;;
40164;SDS011;25882;51.120;17.248;2022-12-07T00:38:44;17.20;;;9.23;;
40164;SDS011;25882;51.120;17.248;2022-12-07T00:41:10;14.73;;;7.85;;
40164;SDS011;25882;51.120;17.248;2022-12-07T00:43:38;15.43;;;8.52;;
40164;SDS011;25882;51.120;17.248;2022-12-07T00:46:06;13.45;;;7.65;;
40164;SDS011;25882;51.120;17.248;2022-12-07T00:48:32;14.95;;;7.97;;
40164;SDS011;25882;51.120;17.248;2022-12-07T00:50:59;14.10;;;7.53;;
40164;SDS011;25882;51.120;17.248;2022-12-07T00:53:26;15.98;;;7.45;;
40164;SDS011;25882;51.120;17.248;2022-12-07T00:55:52;13.70;;;7.18;;
40164;SDS011;25882;51.120;17.248;2022-12-07T00:58:19;13.43;;;8.10;;
40164;SDS011;25882;51.120;17.248;2022-12-07T01:00:45;11.23;;;7.22;;
40164;SDS011;25882;51.120;17.248;2022-12-07T01:03:14;13.77;;;7.90;;
40164;SDS011;25882;51.120;17.248;2022-12-07T01:05:48;10.90;;;7.10;;
40164;SDS011;25882;51.120;17.248;2022-12-07T01:08:15;11.65;;;6.90;;
40164;SDS011;25882;51.120;17.248;2022-12-07T01:10:41;11.15;;;6.28;;
40164;SDS011;25882;51.120;17.248;2022-12-07T01:13:08;13.90;;;6.47;;
40164;SDS011;25882;51.120;17.248;2022-12-07T01:15:34;14.18;;;7.80;;
40164;SDS011;25882;51.120;17.248;2022-12-07T01:18:05;12.73;;;7.95;;
40164;SDS011;25882;51.120;17.248;2022-12-07T01:20:32;12.02;;;6.47;;
40164;SDS011;25882;51.120;17.248;2022-12-07T01:22:59;11.98;;;6.30;;
40164;SDS011;25882;51.120;17.248;2022-12-07T01:25:25;14.15;;;6.38;;
40164;SDS011;25882;51.120;17.248;2022-12-07T01:27:52;9.90;;;6.38;;
40164;SDS011;25882;51.120;17.248;2022-12-07T01:30:18;10.85;;;6.10;;
40164;SDS011;25882;51.120;17.248;2022-12-07T01:32:45;10.32;;;5.82;;
40164;SDS011;25882;51.120;17.248;2022-12-07T01:35:11;13.00;;;6.10;;
40164;SDS011;25882;51.120;17.248;2022-12-07T01:37:39;11.07;;;6.32;;
40164;SDS011;25882;51.120;17.248;2022-12-07T01:40:06;10.90;;;6.30;;
40164;SDS011;25882;51.120;17.248;2022-12-07T01:42:34;9.73;;;5.28;;
40164;SDS011;25882;51.120;17.248;2022-12-07T01:48:08;10.85;;;5.57;;
40164;SDS011;25882;51.120;17.248;2022-12-07T01:53:04;10.20;;;4.47;;
40164;SDS011;25882;51.120;17.248;2022-12-07T01:55:32;10.27;;;4.68;;
40164;SDS011;25882;51.120;17.248;2022-12-07T01:58:00;9.73;;;4.65;;
40164;SDS011;25882;51.120;17.248;2022-12-07T02:00:27;7.53;;;4.85;;
40164;SDS011;25882;51.120;17.248;2022-12-07T02:02:55;10.30;;;5.05;;
40164;SDS011;25882;51.120;17.248;2022-12-07T02:05:23;8.93;;;5.88;;
40164;SDS011;25882;51.120;17.248;2022-12-07T02:07:51;9.85;;;5.63;;
40164;SDS011;25882;51.120;17.248;2022-12-07T02:13:11;10.52;;;5.75;;
40164;SDS011;25882;51.120;17.248;2022-12-07T02:15:54;11.02;;;5.60;;
40164;SDS011;25882;51.120;17.248;2022-12-07T02:18:31;10.80;;;5.40;;
40164;SDS011;25882;51.120;17.248;2022-12-07T02:21:03;8.88;;;5.10;;
40164;SDS011;25882;51.120;17.248;2022-12-07T02:23:48;10.05;;;5.07;;
40164;SDS011;25882;51.120;17.248;2022-12-07T02:26:33;10.13;;;4.50;;
40164;SDS011;25882;51.120;17.248;2022-12-07T02:29:13;8.70;;;5.00;;
40164;SDS011;25882;51.120;17.248;2022-12-07T02:31:43;11.73;;;5.57;;
40164;SDS011;25882;51.120;17.248;2022-12-07T02:34:14;7.97;;;4.35;;
40164;SDS011;25882;51.120;17.248;2022-12-07T02:36:46;10.07;;;4.72;;
40164;SDS011;25882;51.120;17.248;2022-12-07T02:39:18;8.82;;;4.28;;
40164;SDS011;25882;51.120;17.248;2022-12-07T02:41:50;7.97;;;4.47;;
40164;SDS011;25882;51.120;17.248;2022-12-07T02:44:19;5.90;;;3.50;;
40164;SDS011;25882;51.120;17.248;2022-12-07T02:46:49;6.97;;;3.83;;
40164;SDS011;25882;51.120;17.248;2022-12-07T02:49:18;6.70;;;3.15;;
40164;SDS011;25882;51.120;17.248;2022-12-07T02:51:45;5.57;;;3.45;;
40164;SDS011;25882;51.120;17.248;2022-12-07T02:54:12;6.35;;;3.65;;
40164;SDS011;25882;51.120;17.248;2022-12-07T02:56:41;6.10;;;3.13;;
40164;SDS011;25882;51.120;17.248;2022-12-07T02:59:13;5.65;;;3.13;;
40164;SDS011;25882;51.120;17.248;2022-12-07T03:01:48;7.20;;;3.90;;
40164;SDS011;25882;51.120;17.248;2022-12-07T03:07:43;4.95;;;2.95;;
40164;SDS011;25882;51.120;17.248;2022-12-07T03:10:17;6.50;;;3.60;;
40164;SDS011;25882;51.120;17.248;2022-12-07T03:12:49;6.50;;;2.95;;
40164;SDS011;25882;51.120;17.248;2022-12-07T03:15:26;5.63;;;3.45;;
40164;SDS011;25882;51.120;17.248;2022-12-07T03:17:55;4.15;;;2.50;;
40164;SDS011;25882;51.120;17.248;2022-12-07T03:20:23;6.07;;;2.95;;
40164;SDS011;25882;51.120;17.248;2022-12-07T03:22:50;4.88;;;2.95;;
40164;SDS011;25882;51.120;17.248;2022-12-07T03:25:17;4.85;;;2.75;;
40164;SDS011;25882;51.120;17.248;2022-12-07T03:27:44;4.70;;;2.60;;
40164;SDS011;25882;51.120;17.248;2022-12-07T03:30:15;5.90;;;3.08;;
40164;SDS011;25882;51.120;17.248;2022-12-07T03:32:44;4.05;;;2.63;;
40164;SDS011;25882;51.120;17.248;2022-12-07T03:35:14;4.50;;;2.65;;
40164;SDS011;25882;51.120;17.248;2022-12-07T03:37:45;5.47;;;3.20;;
40164;SDS011;25882;51.120;17.248;2022-12-07T03:40:14;5.57;;;3.17;;
40164;SDS011;25882;51.120;17.248;2022-12-07T03:42:43;4.55;;;3.08;;
40164;SDS011;25882;51.120;17.248;2022-12-07T03:45:10;6.20;;;3.53;;
40164;SDS011;25882;51.120;17.248;2022-12-07T03:47:38;7.07;;;3.63;;
40164;SDS011;25882;51.120;17.248;2022-12-07T03:50:11;4.40;;;3.28;;
40164;SDS011;25882;51.120;17.248;2022-12-07T03:52:41;10.10;;;4.10;;
40164;SDS011;25882;51.120;17.248;2022-12-07T03:55:09;5.43;;;3.60;;
40164;SDS011;25882;51.120;17.248;2022-12-07T03:57:37;7.28;;;3.20;;
40164;SDS011;25882;51.120;17.248;2022-12-07T04:00:06;4.18;;;2.78;;
40164;SDS011;25882;51.120;17.248;2022-12-07T04:02:33;5.45;;;3.47;;
40164;SDS011;25882;51.120;17.248;2022-12-07T04:05:00;4.22;;;3.17;;
40164;SDS011;25882;51.120;17.248;2022-12-07T04:07:28;6.22;;;3.60;;
40164;SDS011;25882;51.120;17.248;2022-12-07T04:09:54;6.53;;;4.70;;
40164;SDS011;25882;51.120;17.248;2022-12-07T04:12:21;6.63;;;5.15;;
40164;SDS011;25882;51.120;17.248;2022-12-07T04:14:48;8.63;;;5.35;;
40164;SDS011;25882;51.120;17.248;2022-12-07T04:17:14;10.25;;;5.53;;
40164;SDS011;25882;51.120;17.248;2022-12-07T04:19:41;8.45;;;4.97;;
40164;SDS011;25882;51.120;17.248;2022-12-07T04:22:07;7.90;;;5.70;;
40164;SDS011;25882;51.120;17.248;2022-12-07T04:24:35;7.75;;;5.10;;
40164;SDS011;25882;51.120;17.248;2022-12-07T04:27:02;7.75;;;4.85;;
40164;SDS011;25882;51.120;17.248;2022-12-07T04:29:28;7.53;;;5.07;;
40164;SDS011;25882;51.120;17.248;2022-12-07T04:31:54;7.00;;;4.45;;
40164;SDS011;25882;51.120;17.248;2022-12-07T04:34:21;9.68;;;5.05;;
40164;SDS011;25882;51.120;17.248;2022-12-07T04:36:47;8.13;;;4.68;;
40164;SDS011;25882;51.120;17.248;2022-12-07T04:39:17;6.70;;;4.75;;
40164;SDS011;25882;51.120;17.248;2022-12-07T04:41:47;9.02;;;5.32;;
40164;SDS011;25882;51.120;17.248;2022-12-07T04:44:14;8.32;;;5.03;;
40164;SDS011;25882;51.120;17.248;2022-12-07T04:46:41;9.27;;;5.75;;
40164;SDS011;25882;51.120;17.248;2022-12-07T04:49:08;7.95;;;5.22;;
40164;SDS011;25882;51.120;17.248;2022-12-07T04:51:34;10.40;;;5.00;;
40164;SDS011;25882;51.120;17.248;2022-12-07T04:54:01;9.75;;;5.20;;
40164;SDS011;25882;51.120;17.248;2022-12-07T04:56:27;11.07;;;6.53;;
40164;SDS011;25882;51.120;17.248;2022-12-07T04:58:55;9.75;;;6.20;;
40164;SDS011;25882;51.120;17.248;2022-12-07T05:01:22;8.70;;;4.97;;
40164;SDS011;25882;51.120;17.248;2022-12-07T05:03:50;8.90;;;4.97;;
40164;SDS011;25882;51.120;17.248;2022-12-07T05:06:16;11.57;;;5.68;;
40164;SDS011;25882;51.120;17.248;2022-12-07T05:08:44;8.85;;;5.45;;
40164;SDS011;25882;51.120;17.248;2022-12-07T05:11:10;7.95;;;5.13;;
40164;SDS011;25882;51.120;17.248;2022-12-07T05:14:02;9.63;;;5.75;;
40164;SDS011;25882;51.120;17.248;2022-12-07T05:16:29;13.07;;;5.82;;
40164;SDS011;25882;51.120;17.248;2022-12-07T05:18:55;9.18;;;5.53;;
40164;SDS011;25882;51.120;17.248;2022-12-07T05:21:22;8.85;;;5.57;;
40164;SDS011;25882;51.120;17.248;2022-12-07T05:23:48;9.15;;;5.80;;
40164;SDS011;25882;51.120;17.248;2022-12-07T05:26:15;8.23;;;5.25;;
40164;SDS011;25882;51.120;17.248;2022-12-07T05:28:41;9.48;;;5.35;;
40164;SDS011;25882;51.120;17.248;2022-12-07T05:31:09;10.40;;;5.60;;
40164;SDS011;25882;51.120;17.248;2022-12-07T05:33:36;9.32;;;5.65;;
40164;SDS011;25882;51.120;17.248;2022-12-07T05:36:02;11.25;;;5.93;;
40164;SDS011;25882;51.120;17.248;2022-12-07T05:38:31;9.82;;;5.85;;
40164;SDS011;25882;51.120;17.248;2022-12-07T05:40:59;10.43;;;5.70;;
40164;SDS011;25882;51.120;17.248;2022-12-07T05:43:28;12.02;;;6.22;;
40164;SDS011;25882;51.120;17.248;2022-12-07T05:45:54;11.73;;;6.95;;
40164;SDS011;25882;51.120;17.248;2022-12-07T05:48:22;14.13;;;7.30;;
40164;SDS011;25882;51.120;17.248;2022-12-07T05:50:48;15.02;;;7.63;;
40164;SDS011;25882;51.120;17.248;2022-12-07T05:53:15;17.15;;;8.13;;
40164;SDS011;25882;51.120;17.248;2022-12-07T05:55:41;15.20;;;7.32;;
40164;SDS011;25882;51.120;17.248;2022-12-07T05:58:08;12.90;;;7.40;;
40164;SDS011;25882;51.120;17.248;2022-12-07T06:00:53;18.25;;;8.65;;
40164;SDS011;25882;51.120;17.248;2022-12-07T06:03:21;16.20;;;8.63;;
40164;SDS011;25882;51.120;17.248;2022-12-07T06:05:48;17.40;;;8.90;;
40164;SDS011;25882;51.120;17.248;2022-12-07T06:08:14;18.27;;;9.13;;
40164;SDS011;25882;51.120;17.248;2022-12-07T06:10:40;15.90;;;8.70;;
40164;SDS011;25882;51.120;17.248;2022-12-07T06:13:07;17.70;;;9.13;;
40164;SDS011;25882;51.120;17.248;2022-12-07T06:15:35;20.52;;;10.15;;
40164;SDS011;25882;51.120;17.248;2022-12-07T06:18:02;19.75;;;9.52;;
40164;SDS011;25882;51.120;17.248;2022-12-07T06:20:29;21.17;;;10.95;;
40164;SDS011;25882;51.120;17.248;2022-12-07T06:22:56;21.83;;;10.73;;
40164;SDS011;25882;51.120;17.248;2022-12-07T06:25:22;20.20;;;10.30;;
40164;SDS011;25882;51.120;17.248;2022-12-07T06:27:49;22.77;;;11.38;;
40164;SDS011;25882;51.120;17.248;2022-12-07T06:30:15;22.73;;;11.02;;
40164;SDS011;25882;51.120;17.248;2022-12-07T06:32:42;27.85;;;12.30;;
40164;SDS011;25882;51.120;17.248;2022-12-07T06:35:08;23.85;;;11.15;;
40164;SDS011;25882;51.120;17.248;2022-12-07T06:37:37;21.55;;;10.65;;
40164;SDS011;25882;51.120;17.248;2022-12-07T06:40:04;23.50;;;11.48;;
40164;SDS011;25882;51.120;17.248;2022-12-07T06:42:31;24.30;;;11.10;;
40164;SDS011;25882;51.120;17.248;2022-12-07T06:44:58;28.02;;;13.32;;
40164;SDS011;25882;51.120;17.248;2022-12-07T06:47:24;26.95;;;12.63;;
40164;SDS011;25882;51.120;17.248;2022-12-07T06:49:50;26.60;;;11.98;;
40164;SDS011;25882;51.120;17.248;2022-12-07T06:52:17;28.60;;;12.63;;
40164;SDS011;25882;51.120;17.248;2022-12-07T06:54:45;30.60;;;14.20;;
40164;SDS011;25882;51.120;17.248;2022-12-07T06:57:11;31.30;;;14.10;;
40164;SDS011;25882;51.120;17.248;2022-12-07T06:59:37;32.10;;;15.80;;
40164;SDS011;25882;51.120;17.248;2022-12-07T07:02:04;25.48;;;13.15;;
40164;SDS011;25882;51.120;17.248;2022-12-07T07:04:30;30.73;;;13.93;;
40164;SDS011;25882;51.120;17.248;2022-12-07T07:06:57;22.15;;;10.85;;
40164;SDS011;25882;51.120;17.248;2022-12-07T07:09:23;32.75;;;12.73;;
40164;SDS011;25882;51.120;17.248;2022-12-07T07:11:51;29.00;;;12.80;;
40164;SDS011;25882;51.120;17.248;2022-12-07T07:14:17;38.25;;;14.40;;
40164;SDS011;25882;51.120;17.248;2022-12-07T07:16:45;25.13;;;12.73;;
40164;SDS011;25882;51.120;17.248;2022-12-07T07:19:11;28.77;;;12.65;;
40164;SDS011;25882;51.120;17.248;2022-12-07T07:21:37;25.73;;;12.45;;
40164;SDS011;25882;51.120;17.248;2022-12-07T07:24:04;26.25;;;12.02;;
40164;SDS011;25882;51.120;17.248;2022-12-07T07:26:31;20.92;;;11.13;;
40164;SDS011;25882;51.120;17.248;2022-12-07T07:28:58;26.25;;;11.98;;
40164;SDS011;25882;51.120;17.248;2022-12-07T07:31:25;25.70;;;11.40;;
40164;SDS011;25882;51.120;17.248;2022-12-07T07:33:51;22.58;;;11.13;;
40164;SDS011;25882;51.120;17.248;2022-12-07T07:36:18;27.17;;;11.77;;
40164;SDS011;25882;51.120;17.248;2022-12-07T07:38:44;26.50;;;11.95;;
40164;SDS011;25882;51.120;17.248;2022-12-07T07:41:11;26.38;;;12.57;;
40164;SDS011;25882;51.120;17.248;2022-12-07T07:43:37;25.00;;;10.93;;
40164;SDS011;25882;51.120;17.248;2022-12-07T07:46:05;24.38;;;11.98;;
40164;SDS011;25882;51.120;17.248;2022-12-07T07:48:31;23.98;;;12.30;;
40164;SDS011;25882;51.120;17.248;2022-12-07T07:50:58;20.58;;;11.23;;
40164;SDS011;25882;51.120;17.248;2022-12-07T07:53:24;24.73;;;12.68;;
40164;SDS011;25882;51.120;17.248;2022-12-07T07:55:51;28.85;;;13.98;;
40164;SDS011;25882;51.120;17.248;2022-12-07T07:58:18;25.38;;;14.75;;
40164;SDS011;25882;51.120;17.248;2022-12-07T08:00:45;23.67;;;13.25;;
40164;SDS011;25882;51.120;17.248;2022-12-07T08:03:13;24.08;;;13.05;;
40164;SDS011;25882;51.120;17.248;2022-12-07T08:05:40;28.50;;;13.50;;
40164;SDS011;25882;51.120;17.248;2022-12-07T08:08:06;28.08;;;14.15;;
40164;SDS011;25882;51.120;17.248;2022-12-07T08:10:33;21.42;;;11.65;;
40164;SDS011;25882;51.120;17.248;2022-12-07T08:13:00;33.80;;;15.57;;
40164;SDS011;25882;51.120;17.248;2022-12-07T08:15:40;27.70;;;13.52;;
40164;SDS011;25882;51.120;17.248;2022-12-07T08:18:07;24.60;;;12.45;;
40164;SDS011;25882;51.120;17.248;2022-12-07T08:20:36;25.33;;;12.48;;
40164;SDS011;25882;51.120;17.248;2022-12-07T08:23:03;32.90;;;15.15;;
40164;SDS011;25882;51.120;17.248;2022-12-07T08:25:30;48.40;;;18.83;;
40164;SDS011;25882;51.120;17.248;2022-12-07T08:27:57;42.53;;;20.23;;
40164;SDS011;25882;51.120;17.248;2022-12-07T08:30:24;49.00;;;22.67;;
40164;SDS011;25882;51.120;17.248;2022-12-07T08:32:50;47.30;;;22.48;;
40164;SDS011;25882;51.120;17.248;2022-12-07T08:35:17;37.78;;;18.17;;
40164;SDS011;25882;51.120;17.248;2022-12-07T08:37:44;27.75;;;14.05;;
40164;SDS011;25882;51.120;17.248;2022-12-07T08:40:12;26.83;;;13.55;;
40164;SDS011;25882;51.120;17.248;2022-12-07T08:42:40;36.33;;;18.42;;
40164;SDS011;25882;51.120;17.248;2022-12-07T08:45:08;35.30;;;18.50;;
40164;SDS011;25882;51.120;17.248;2022-12-07T08:47:35;105.00;;;43.78;;
40164;SDS011;25882;51.120;17.248;2022-12-07T08:50:04;46.17;;;19.10;;
40164;SDS011;25882;51.120;17.248;2022-12-07T08:52:32;112.15;;;47.38;;
40164;SDS011;25882;51.120;17.248;2022-12-07T08:55:01;29.55;;;14.43;;
40164;SDS011;25882;51.120;17.248;2022-12-07T08:57:28;39.45;;;21.38;;
40164;SDS011;25882;51.120;17.248;2022-12-07T08:59:55;33.03;;;19.17;;
40164;SDS011;25882;51.120;17.248;2022-12-07T09:02:22;22.70;;;11.98;;
40164;SDS011;25882;51.120;17.248;2022-12-07T09:04:48;28.48;;;16.23;;
40164;SDS011;25882;51.120;17.248;2022-12-07T09:07:15;24.83;;;12.90;;
40164;SDS011;25882;51.120;17.248;2022-12-07T09:09:41;19.05;;;10.63;;
40164;SDS011;25882;51.120;17.248;2022-12-07T09:12:09;14.75;;;8.13;;
40164;SDS011;25882;51.120;17.248;2022-12-07T09:14:36;15.70;;;7.90;;
40164;SDS011;25882;51.120;17.248;2022-12-07T09:17:05;15.98;;;8.73;;
40164;SDS011;25882;51.120;17.248;2022-12-07T09:19:32;14.80;;;8.57;;
40164;SDS011;25882;51.120;17.248;2022-12-07T09:21:59;15.43;;;8.50;;
40164;SDS011;25882;51.120;17.248;2022-12-07T09:24:25;12.88;;;7.95;;
40164;SDS011;25882;51.120;17.248;2022-12-07T09:26:51;16.30;;;8.68;;
40164;SDS011;25882;51.120;17.248;2022-12-07T09:29:20;15.88;;;8.80;;
40164;SDS011;25882;51.120;17.248;2022-12-07T09:31:46;12.27;;;6.95;;
40164;SDS011;25882;51.120;17.248;2022-12-07T09:34:12;14.35;;;7.63;;
40164;SDS011;25882;51.120;17.248;2022-12-07T09:36:39;13.68;;;7.85;;
40164;SDS011;25882;51.120;17.248;2022-12-07T09:39:05;12.85;;;8.27;;
40164;SDS011;25882;51.120;17.248;2022-12-07T09:41:31;8.82;;;5.60;;
40164;SDS011;25882;51.120;17.248;2022-12-07T09:44:02;10.80;;;5.90;;
40164;SDS011;25882;51.120;17.248;2022-12-07T09:46:33;10.77;;;6.90;;
40164;SDS011;25882;51.120;17.248;2022-12-07T09:49:02;8.93;;;5.47;;
40164;SDS011;25882;51.120;17.248;2022-12-07T09:51:28;11.60;;;6.05;;
40164;SDS011;25882;51.120;17.248;2022-12-07T09:53:55;10.85;;;6.20;;
40164;SDS011;25882;51.120;17.248;2022-12-07T09:56:22;10.77;;;6.03;;
40164;SDS011;25882;51.120;17.248;2022-12-07T09:58:49;9.57;;;5.15;;
40164;SDS011;25882;51.120;17.248;2022-12-07T10:01:16;11.20;;;6.28;;
40164;SDS011;25882;51.120;17.248;2022-12-07T10:03:47;8.20;;;5.18;;
40164;SDS011;25882;51.120;17.248;2022-12-07T10:08:42;7.00;;;4.63;;
40164;SDS011;25882;51.120;17.248;2022-12-07T10:11:09;10.77;;;6.03;;
40164;SDS011;25882;51.120;17.248;2022-12-07T10:13:36;9.27;;;5.07;;
40164;SDS011;25882;51.120;17.248;2022-12-07T10:16:04;11.55;;;5.93;;
40164;SDS011;25882;51.120;17.248;2022-12-07T10:18:32;10.30;;;5.18;;
40164;SDS011;25882;51.120;17.248;2022-12-07T10:21:03;9.93;;;5.13;;
40164;SDS011;25882;51.120;17.248;2022-12-07T10:23:38;8.60;;;5.50;;
40164;SDS011;25882;51.120;17.248;2022-12-07T10:26:21;10.82;;;5.93;;
40164;SDS011;25882;51.120;17.248;2022-12-07T10:28:54;12.13;;;6.25;;
40164;SDS011;25882;51.120;17.248;2022-12-07T10:31:21;9.82;;;5.18;;
40164;SDS011;25882;51.120;17.248;2022-12-07T10:33:50;10.02;;;4.95;;
40164;SDS011;25882;51.120;17.248;2022-12-07T10:36:20;9.88;;;5.68;;
40164;SDS011;25882;51.120;17.248;2022-12-07T10:38:50;10.50;;;6.35;;
40164;SDS011;25882;51.120;17.248;2022-12-07T10:41:17;9.52;;;6.18;;
40164;SDS011;25882;51.120;17.248;2022-12-07T10:43:52;10.77;;;5.55;;
40164;SDS011;25882;51.120;17.248;2022-12-07T10:52:37;12.52;;;6.25;;
40164;SDS011;25882;51.120;17.248;2022-12-07T10:55:21;10.77;;;6.40;;
40164;SDS011;25882;51.120;17.248;2022-12-07T11:00:42;12.48;;;6.72;;
40164;SDS011;25882;51.120;17.248;2022-12-07T11:06:08;11.88;;;6.80;;
40164;SDS011;25882;51.120;17.248;2022-12-07T11:08:44;14.02;;;6.90;;
40164;SDS011;25882;51.120;17.248;2022-12-07T11:11:19;10.18;;;6.28;;
40164;SDS011;25882;51.120;17.248;2022-12-07T11:13:51;11.63;;;6.75;;
40164;SDS011;25882;51.120;17.248;2022-12-07T11:16:23;11.82;;;6.05;;
40164;SDS011;25882;51.120;17.248;2022-12-07T11:21:54;10.57;;;5.22;;
40164;SDS011;25882;51.120;17.248;2022-12-07T11:24:26;8.27;;;4.63;;
40164;SDS011;25882;51.120;17.248;2022-12-07T11:26:59;9.25;;;4.05;;
40164;SDS011;25882;51.120;17.248;2022-12-07T11:29:40;6.45;;;3.85;;
40164;SDS011;25882;51.120;17.248;2022-12-07T11:32:19;5.68;;;3.25;;
40164;SDS011;25882;51.120;17.248;2022-12-07T11:34:51;8.20;;;4.05;;
40164;SDS011;25882;51.120;17.248;2022-12-07T11:37:25;6.90;;;3.60;;
40164;SDS011;25882;51.120;17.248;2022-12-07T11:39:58;7.15;;;4.20;;
40164;SDS011;25882;51.120;17.248;2022-12-07T11:42:27;6.60;;;3.83;;
40164;SDS011;25882;51.120;17.248;2022-12-07T11:44:56;6.68;;;3.60;;
40164;SDS011;25882;51.120;17.248;2022-12-07T11:47:28;6.07;;;3.30;;
40164;SDS011;25882;51.120;17.248;2022-12-07T11:50:03;5.70;;;3.40;;
40164;SDS011;25882;51.120;17.248;2022-12-07T11:52:38;6.63;;;3.45;;
40164;SDS011;25882;51.120;17.248;2022-12-07T11:55:14;6.13;;;3.72;;
40164;SDS011;25882;51.120;17.248;2022-12-07T11:57:46;6.88;;;4.05;;
40164;SDS011;25882;51.120;17.248;2022-12-07T12:00:17;7.20;;;4.10;;
40164;SDS011;25882;51.120;17.248;2022-12-07T12:02:46;13.85;;;3.78;;
40164;SDS011;25882;51.120;17.248;2022-12-07T12:05:16;9.68;;;4.70;;
40164;SDS011;25882;51.120;17.248;2022-12-07T12:07:44;6.88;;;3.45;;
40164;SDS011;25882;51.120;17.248;2022-12-07T12:10:18;6.28;;;3.83;;
40164;SDS011;25882;51.120;17.248;2022-12-07T12:12:51;7.82;;;3.75;;
40164;SDS011;25882;51.120;17.248;2022-12-07T12:15:35;7.25;;;3.92;;
40164;SDS011;25882;51.120;17.248;2022-12-07T12:18:15;6.30;;;3.88;;
40164;SDS011;25882;51.120;17.248;2022-12-07T12:21:06;8.43;;;4.53;;
40164;SDS011;25882;51.120;17.248;2022-12-07T12:23:36;5.15;;;4.10;;
40164;SDS011;25882;51.120;17.248;2022-12-07T12:26:08;6.38;;;3.53;;
40164;SDS011;25882;51.120;17.248;2022-12-07T12:28:48;7.13;;;4.25;;
40164;SDS011;25882;51.120;17.248;2022-12-07T12:31:30;8.40;;;4.13;;
40164;SDS011;25882;51.120;17.248;2022-12-07T12:34:01;9.45;;;4.85;;
40164;SDS011;25882;51.120;17.248;2022-12-07T12:36:42;7.88;;;4.60;;
40164;SDS011;25882;51.120;17.248;2022-12-07T12:39:11;9.18;;;4.88;;
40164;SDS011;25882;51.120;17.248;2022-12-07T12:42:00;7.80;;;4.35;;
40164;SDS011;25882;51.120;17.248;2022-12-07T12:44:48;9.85;;;5.43;;
40164;SDS011;25882;51.120;17.248;2022-12-07T12:47:41;11.13;;;5.65;;
40164;SDS011;25882;51.120;17.248;2022-12-07T12:50:15;6.20;;;4.25;;
40164;SDS011;25882;51.120;17.248;2022-12-07T12:52:54;8.70;;;4.68;;
40164;SDS011;25882;51.120;17.248;2022-12-07T12:58:44;6.80;;;4.25;;
40164;SDS011;25882;51.120;17.248;2022-12-07T13:04:14;7.90;;;4.10;;
40164;SDS011;25882;51.120;17.248;2022-12-07T13:06:53;9.43;;;4.85;;
40164;SDS011;25882;51.120;17.248;2022-12-07T13:09:20;6.78;;;4.40;;
40164;SDS011;25882;51.120;17.248;2022-12-07T13:11:49;6.95;;;4.68;;
40164;SDS011;25882;51.120;17.248;2022-12-07T13:20:47;10.85;;;5.93;;
40164;SDS011;25882;51.120;17.248;2022-12-07T13:23:25;11.55;;;6.28;;
40164;SDS011;25882;51.120;17.248;2022-12-07T13:25:56;10.43;;;6.05;;
40164;SDS011;25882;51.120;17.248;2022-12-07T13:28:31;10.20;;;6.32;;
40164;SDS011;25882;51.120;17.248;2022-12-07T13:31:14;16.25;;;8.95;;
40164;SDS011;25882;51.120;17.248;2022-12-07T13:33:46;11.80;;;6.43;;
40164;SDS011;25882;51.120;17.248;2022-12-07T13:36:16;7.57;;;4.80;;
40164;SDS011;25882;51.120;17.248;2022-12-07T13:38:49;20.20;;;11.02;;
40164;SDS011;25882;51.120;17.248;2022-12-07T13:41:19;27.65;;;15.48;;
40164;SDS011;25882;51.120;17.248;2022-12-07T13:43:48;15.73;;;9.57;;
40164;SDS011;25882;51.120;17.248;2022-12-07T13:46:18;17.52;;;11.43;;
40164;SDS011;25882;51.120;17.248;2022-12-07T13:48:47;20.08;;;6.97;;
40164;SDS011;25882;51.120;17.248;2022-12-07T13:51:18;12.05;;;6.72;;
40164;SDS011;25882;51.120;17.248;2022-12-07T13:53:48;10.10;;;5.68;;
40164;SDS011;25882;51.120;17.248;2022-12-07T13:56:15;11.05;;;6.03;;
40164;SDS011;25882;51.120;17.248;2022-12-07T13:58:42;10.60;;;5.40;;
40164;SDS011;25882;51.120;17.248;2022-12-07T14:01:09;14.70;;;7.50;;
40164;SDS011;25882;51.120;17.248;2022-12-07T14:03:37;14.05;;;7.55;;
40164;SDS011;25882;51.120;17.248;2022-12-07T14:06:14;20.73;;;9.02;;
40164;SDS011;25882;51.120;17.248;2022-12-07T14:08:43;15.45;;;7.78;;
40164;SDS011;25882;51.120;17.248;2022-12-07T14:11:10;13.60;;;7.13;;
40164;SDS011;25882;51.120;17.248;2022-12-07T14:13:44;15.40;;;8.60;;
40164;SDS011;25882;51.120;17.248;2022-12-07T14:16:22;19.13;;;10.25;;
40164;SDS011;25882;51.120;17.248;2022-12-07T14:18:52;12.35;;;7.78;;
40164;SDS011;25882;51.120;17.248;2022-12-07T14:21:19;16.67;;;9.30;;
40164;SDS011;25882;51.120;17.248;2022-12-07T14:24:08;19.75;;;11.80;;
40164;SDS011;25882;51.120;17.248;2022-12-07T14:26:37;10.93;;;4.90;;
40164;SDS011;25882;51.120;17.248;2022-12-07T14:29:21;9.68;;;5.88;;
40164;SDS011;25882;51.120;17.248;2022-12-07T14:31:48;9.80;;;7.38;;
40164;SDS011;25882;51.120;17.248;2022-12-07T14:34:16;12.48;;;7.20;;
40164;SDS011;25882;51.120;17.248;2022-12-07T14:36:42;18.75;;;9.52;;
40164;SDS011;25882;51.120;17.248;2022-12-07T14:39:09;12.00;;;6.82;;
40164;SDS011;25882;51.120;17.248;2022-12-07T14:41:35;12.27;;;6.70;;
40164;SDS011;25882;51.120;17.248;2022-12-07T14:44:18;12.90;;;7.38;;
40164;SDS011;25882;51.120;17.248;2022-12-07T14:46:45;12.32;;;7.32;;
40164;SDS011;25882;51.120;17.248;2022-12-07T14:49:12;26.33;;;11.63;;
40164;SDS011;25882;51.120;17.248;2022-12-07T14:51:40;32.47;;;15.52;;
40164;SDS011;25882;51.120;17.248;2022-12-07T14:54:09;16.65;;;9.30;;
40164;SDS011;25882;51.120;17.248;2022-12-07T14:56:39;13.85;;;7.20;;
40164;SDS011;25882;51.120;17.248;2022-12-07T14:59:06;29.30;;;15.63;;
40164;SDS011;25882;51.120;17.248;2022-12-07T15:01:33;22.17;;;11.43;;
40164;SDS011;25882;51.120;17.248;2022-12-07T15:04:00;23.00;;;11.93;;
40164;SDS011;25882;51.120;17.248;2022-12-07T15:06:27;41.10;;;20.77;;
40164;SDS011;25882;51.120;17.248;2022-12-07T15:08:55;42.67;;;19.42;;
40164;SDS011;25882;51.120;17.248;2022-12-07T15:11:21;48.13;;;20.13;;
40164;SDS011;25882;51.120;17.248;2022-12-07T15:13:48;28.58;;;15.38;;
40164;SDS011;25882;51.120;17.248;2022-12-07T15:16:33;29.85;;;12.82;;
40164;SDS011;25882;51.120;17.248;2022-12-07T15:18:59;28.77;;;13.68;;